Time;durP1;ratioP1;P1;durP2;ratioP2;P2;SDS_P1;SDS_P2;PMS_P1;PMS_P2;Temp;Humidity;BMP_temperature;BMP_pressure;BME280_temperature;BME280_humidity;BME280_pressure;Samples;Min_cycle;Max_cycle;Signal;HPM_P1;HPM_P2
2023/12/08 00:02:04;;;;;;;2.5;1.4;;;;;;;;;;;;;
2023/12/08 00:04:33;;;;;;;1.5;1.2;;;;;;;;;;;;;
2023/12/08 00:06:58;;;;;;;1.7;1.2;;;;;;;;;;;;;
2023/12/08 00:09:30;;;;;;;1.3;1;;;;;;;;;;;;;
2023/12/08 00:11:58;;;;;;;3.1;1.2;;;;;;;;;;;;;
2023/12/08 00:14:22;;;;;;;2.5;1.5;;;;;;;;;;;;;
2023/12/08 00:16:47;;;;;;;2.9;1.5;;;;;;;;;;;;;
2023/12/08 00:19:12;;;;;;;3.9;1.5;;;;;;;;;;;;;
2023/12/08 00:21:38;;;;;;;2.9;1.9;;;;;;;;;;;;;
2023/12/08 00:24:04;;;;;;;4.6;2;;;;;;;;;;;;;
2023/12/08 00:26:32;;;;;;;5.1;2.5;;;;;;;;;;;;;
2023/12/08 00:28:57;;;;;;;5.5;3.4;;;;;;;;;;;;;
2023/12/08 00:31:28;;;;;;;3.9;2.1;;;;;;;;;;;;;
2023/12/08 00:33:54;;;;;;;6.4;3.7;;;;;;;;;;;;;
2023/12/08 00:36:22;;;;;;;5.6;3.3;;;;;;;;;;;;;
2023/12/08 00:38:46;;;;;;;6;2.9;;;;;;;;;;;;;
2023/12/08 00:41:12;;;;;;;5.7;2.6;;;;;;;;;;;;;
2023/12/08 00:43:37;;;;;;;4.2;2.4;;;;;;;;;;;;;
2023/12/08 00:46:03;;;;;;;2.4;1.6;;;;;;;;;;;;;
2023/12/08 00:48:30;;;;;;;5.6;2;;;;;;;;;;;;;
2023/12/08 00:50:56;;;;;;;2.4;1.7;;;;;;;;;;;;;
2023/12/08 00:53:21;;;;;;;1.4;1.1;;;;;;;;;;;;;
2023/12/08 00:55:46;;;;;;;3;1.6;;;;;;;;;;;;;
2023/12/08 00:58:11;;;;;;;1.8;1.3;;;;;;;;;;;;;
2023/12/08 01:00:38;;;;;;;2.3;1.3;;;;;;;;;;;;;
2023/12/08 01:03:03;;;;;;;3.6;2.1;;;;;;;;;;;;;
2023/12/08 01:05:28;;;;;;;3.4;1.9;;;;;;;;;;;;;
2023/12/08 01:07:53;;;;;;;2.5;1.8;;;;;;;;;;;;;
2023/12/08 01:10:20;;;;;;;4.5;2.3;;;;;;;;;;;;;
2023/12/08 01:12:45;;;;;;;4.4;2.6;;;;;;;;;;;;;
2023/12/08 01:15:13;;;;;;;5.7;2.2;;;;;;;;;;;;;
2023/12/08 01:17:38;;;;;;;5.2;1.4;;;;;;;;;;;;;
2023/12/08 01:20:04;;;;;;;2.3;1.6;;;;;;;;;;;;;
2023/12/08 01:22:29;;;;;;;3.5;1.7;;;;;;;;;;;;;
2023/12/08 01:24:55;;;;;;;3;1.5;;;;;;;;;;;;;
2023/12/08 01:27:20;;;;;;;2.6;1.8;;;;;;;;;;;;;
2023/12/08 01:29:46;;;;;;;2.2;1.8;;;;;;;;;;;;;
2023/12/08 01:32:11;;;;;;;2.5;1.7;;;;;;;;;;;;;
2023/12/08 01:34:36;;;;;;;3;1.6;;;;;;;;;;;;;
2023/12/08 01:37:02;;;;;;;3.4;1.6;;;;;;;;;;;;;
2023/12/08 01:39:30;;;;;;;2.6;1.3;;;;;;;;;;;;;
2023/12/08 01:41:55;;;;;;;1.7;1.3;;;;;;;;;;;;;
2023/12/08 01:44:20;;;;;;;2.2;1.3;;;;;;;;;;;;;
2023/12/08 01:46:45;;;;;;;1.3;1;;;;;;;;;;;;;
2023/12/08 01:49:11;;;;;;;1.9;1.2;;;;;;;;;;;;;
2023/12/08 01:51:36;;;;;;;2.2;0.9;;;;;;;;;;;;;
2023/12/08 01:54:05;;;;;;;1.1;1;;;;;;;;;;;;;
2023/12/08 01:56:30;;;;;;;1.3;0.9;;;;;;;;;;;;;
2023/12/08 01:58:57;;;;;;;2.5;1.4;;;;;;;;;;;;;
2023/12/08 02:01:22;;;;;;;2;1.2;;;;;;;;;;;;;
2023/12/08 02:03:48;;;;;;;2.3;1.2;;;;;;;;;;;;;
2023/12/08 02:06:12;;;;;;;1.3;1;;;;;;;;;;;;;
2023/12/08 02:08:38;;;;;;;3.3;1.4;;;;;;;;;;;;;
2023/12/08 02:11:03;;;;;;;3;1.4;;;;;;;;;;;;;
2023/12/08 02:13:28;;;;;;;2.3;1.2;;;;;;;;;;;;;
2023/12/08 02:15:53;;;;;;;1.5;1;;;;;;;;;;;;;
2023/12/08 02:18:19;;;;;;;1.2;1;;;;;;;;;;;;;
2023/12/08 02:20:44;;;;;;;1.7;0.9;;;;;;;;;;;;;
2023/12/08 02:23:09;;;;;;;1;0.9;;;;;;;;;;;;;
2023/12/08 02:25:35;;;;;;;0.4;0.4;;;;;;;;;;;;;
2023/12/08 02:28:00;;;;;;;1.1;0.6;;;;;;;;;;;;;
2023/12/08 02:30:25;;;;;;;1.6;1.1;;;;;;;;;;;;;
2023/12/08 02:32:50;;;;;;;1.3;0.9;;;;;;;;;;;;;
2023/12/08 02:35:16;;;;;;;2;1.1;;;;;;;;;;;;;
2023/12/08 02:37:42;;;;;;;1.1;1;;;;;;;;;;;;;
2023/12/08 02:40:09;;;;;;;1.5;1;;;;;;;;;;;;;
2023/12/08 02:42:34;;;;;;;1.4;1;;;;;;;;;;;;;
2023/12/08 02:44:59;;;;;;;1.7;0.8;;;;;;;;;;;;;
2023/12/08 02:47:24;;;;;;;2.5;1.2;;;;;;;;;;;;;
2023/12/08 02:49:50;;;;;;;1.6;0.9;;;;;;;;;;;;;
2023/12/08 02:52:15;;;;;;;0.5;0.5;;;;;;;;;;;;;
2023/12/08 02:54:41;;;;;;;0.8;0.7;;;;;;;;;;;;;
2023/12/08 02:57:06;;;;;;;1.3;0.8;;;;;;;;;;;;;
2023/12/08 02:59:33;;;;;;;1;0.7;;;;;;;;;;;;;
2023/12/08 03:01:57;;;;;;;1.5;0.9;;;;;;;;;;;;;
2023/12/08 03:04:23;;;;;;;2.4;1.2;;;;;;;;;;;;;
2023/12/08 03:06:48;;;;;;;2.6;1;;;;;;;;;;;;;
2023/12/08 03:09:14;;;;;;;3.4;1.2;;;;;;;;;;;;;
2023/12/08 03:11:39;;;;;;;2.4;1.1;;;;;;;;;;;;;
2023/12/08 03:14:05;;;;;;;3.4;1.3;;;;;;;;;;;;;
2023/12/08 03:16:30;;;;;;;2.8;1.4;;;;;;;;;;;;;
2023/12/08 03:18:57;;;;;;;1.7;0.9;;;;;;;;;;;;;
2023/12/08 03:21:23;;;;;;;1;0.9;;;;;;;;;;;;;
2023/12/08 03:23:47;;;;;;;1.3;1.2;;;;;;;;;;;;;
2023/12/08 03:26:13;;;;;;;1.1;0.9;;;;;;;;;;;;;
2023/12/08 03:28:38;;;;;;;1.6;0.9;;;;;;;;;;;;;
2023/12/08 03:31:03;;;;;;;1.9;1.2;;;;;;;;;;;;;
2023/12/08 03:33:30;;;;;;;1.4;1;;;;;;;;;;;;;
2023/12/08 03:35:55;;;;;;;0.7;0.7;;;;;;;;;;;;;
2023/12/08 03:38:21;;;;;;;1.2;0.8;;;;;;;;;;;;;
2023/12/08 03:40:46;;;;;;;1.2;0.8;;;;;;;;;;;;;
2023/12/08 03:43:12;;;;;;;0.8;0.8;;;;;;;;;;;;;
2023/12/08 03:45:37;;;;;;;0.8;0.8;;;;;;;;;;;;;
2023/12/08 03:48:03;;;;;;;0.6;0.6;;;;;;;;;;;;;
2023/12/08 03:50:28;;;;;;;0.8;0.6;;;;;;;;;;;;;
2023/12/08 03:52:55;;;;;;;1.9;1;;;;;;;;;;;;;
2023/12/08 03:55:20;;;;;;;1;0.8;;;;;;;;;;;;;
2023/12/08 03:57:48;;;;;;;1;0.7;;;;;;;;;;;;;
2023/12/08 04:02:42;;;;;;;19.3;7.4;;;;;;;1.37;75.49121;931.3116;;;;
2023/12/08 04:05:16;;;;;;;5.5;2.6;;;;;;;1.3;77.24512;931.3017;;;;
2023/12/08 04:07:49;;;;;;;1.7;1.3;;;;;;;1.23;78.57129;931.2545;;;;
2023/12/08 04:10:20;;;;;;;2;1.4;;;;;;;1.21;79.69629;931.3189;;;;
2023/12/08 04:12:49;;;;;;;1.5;1.2;;;;;;;1.19;79.78223;931.2679;;;;
2023/12/08 04:15:16;;;;;;;1.8;1.1;;;;;;;1.16;80.02246;931.2114;;;;
2023/12/08 04:17:49;;;;;;;1.1;0.9;;;;;;;1.18;80.07227;931.1845;;;;
2023/12/08 04:20:24;;;;;;;1.2;1;;;;;;;1.25;80.43066;931.0452;;;;
2023/12/08 04:22:54;;;;;;;2;1.2;;;;;;;1.28;80.69238;931.1205;;;;
2023/12/08 04:25:20;;;;;;;0.6;0.6;;;;;;;1.29;79.72266;931.1202;;;;
2023/12/08 04:27:49;;;;;;;1.7;1;;;;;;;1.37;79.7373;931.0151;;;;
2023/12/08 04:30:18;;;;;;;4;2.7;;;;;;;1.27;80.97949;931.0268;;;;
2023/12/08 04:32:42;;;;;;;1.8;1.2;;;;;;;1.21;81.66211;930.916;;;;
2023/12/08 04:35:07;;;;;;;0.9;0.8;;;;;;;1.36;80.9209;930.91;;;;
2023/12/08 04:37:38;;;;;;;1;0.8;;;;;;;1.38;79.94238;930.9066;;;;
2023/12/08 04:40:08;;;;;;;1;0.9;;;;;;;1.41;79.94727;930.8262;;;;
2023/12/08 04:42:36;;;;;;;1.7;1.4;;;;;;;1.47;80.02637;930.8611;;;;
2023/12/08 04:45:00;;;;;;;1.9;1.3;;;;;;;1.53;78.61719;930.7797;;;;
2023/12/08 04:47:32;;;;;;;1.7;1.2;;;;;;;1.49;78.55371;930.7416;;;;
2023/12/08 04:49:59;;;;;;;1.3;1.2;;;;;;;1.49;78.43164;930.8209;;;;
2023/12/08 04:52:23;;;;;;;2.3;1;;;;;;;1.57;77.62793;930.7471;;;;
2023/12/08 04:54:48;;;;;;;2.2;1.4;;;;;;;1.58;78.97363;930.7633;;;;
2023/12/08 04:57:16;;;;;;;2.3;1.6;;;;;;;1.53;80.83008;930.7648;;;;
2023/12/08 04:59:41;;;;;;;2.3;1.8;;;;;;;1.49;81.89648;930.7087;;;;
2023/12/08 05:02:07;;;;;;;1.6;1.5;;;;;;;1.42;82.87598;930.8672;;;;
2023/12/08 05:04:33;;;;;;;13.3;7.3;;;;;;;1.42;83.38086;930.8351;;;;
2023/12/08 05:06:58;;;;;;;3.6;2.8;;;;;;;1.41;83.5332;930.7249;;;;
2023/12/08 05:09:25;;;;;;;1.4;1;;;;;;;1.44;83.14941;930.9203;;;;
2023/12/08 05:11:50;;;;;;;1.4;1.2;;;;;;;1.48;82.85449;930.8691;;;;
2023/12/08 05:14:17;;;;;;;1.3;1.2;;;;;;;1.44;83.55176;930.8797;;;;
2023/12/08 05:16:42;;;;;;;1.7;1.2;;;;;;;;;;;;;
2023/12/08 05:19:10;;;;;;;1.9;1.2;;;;;;;;;;;;;
2023/12/08 05:21:35;;;;;;;0.7;0.6;;;;;;;;;;;;;
2023/12/08 05:24:00;;;;;;;0.9;0.9;;;;;;;;;;;;;
2023/12/08 05:26:25;;;;;;;1.3;1.2;;;;;;;;;;;;;
2023/12/08 05:28:52;;;;;;;1.6;1.5;;;;;;;;;;;;;
2023/12/08 05:31:18;;;;;;;3.1;1.7;;;;;;;;;;;;;
2023/12/08 05:33:43;;;;;;;2;1.5;;;;;;;;;;;;;
2023/12/08 05:36:08;;;;;;;1.7;1.4;;;;;;;;;;;;;
2023/12/08 05:38:33;;;;;;;2.2;1.3;;;;;;;;;;;;;
2023/12/08 05:40:59;;;;;;;1.9;1.2;;;;;;;;;;;;;
2023/12/08 05:43:26;;;;;;;2.3;1.5;;;;;;;;;;;;;
2023/12/08 05:45:51;;;;;;;4.3;3.1;;;;;;;;;;;;;
2023/12/08 05:48:17;;;;;;;4.1;3.1;;;;;;;;;;;;;
2023/12/08 05:50:43;;;;;;;9.9;5.4;;;;;;;;;;;;;
2023/12/08 05:53:08;;;;;;;8.3;4.7;;;;;;;;;;;;;
2023/12/08 05:55:34;;;;;;;11.1;6.2;;;;;;;;;;;;;
2023/12/08 05:57:59;;;;;;;12.4;7.8;;;;;;;;;;;;;
2023/12/08 06:00:26;;;;;;;11.1;7;;;;;;;;;;;;;
2023/12/08 06:02:51;;;;;;;2.9;2.3;;;;;;;;;;;;;
2023/12/08 06:05:19;;;;;;;7.4;6.7;;;;;;;;;;;;;
2023/12/08 06:07:43;;;;;;;4.5;3.3;;;;;;;;;;;;;
2023/12/08 06:10:09;;;;;;;2.4;2.2;;;;;;;;;;;;;
2023/12/08 06:12:34;;;;;;;2.4;1.9;;;;;;;;;;;;;
2023/12/08 06:15:00;;;;;;;1.9;1.6;;;;;;;;;;;;;
2023/12/08 06:17:26;;;;;;;2.1;1;;;;;;;;;;;;;
2023/12/08 06:19:50;;;;;;;3.2;2.3;;;;;;;;;;;;;
2023/12/08 06:22:16;;;;;;;3;2.3;;;;;;;;;;;;;
2023/12/08 06:24:42;;;;;;;2.7;2.3;;;;;;;;;;;;;
2023/12/08 06:27:07;;;;;;;2.7;1.7;;;;;;;;;;;;;
2023/12/08 06:29:34;;;;;;;1.9;1.3;;;;;;;;;;;;;
2023/12/08 06:32:00;;;;;;;1.6;1.3;;;;;;;;;;;;;
2023/12/08 06:34:25;;;;;;;4;1.9;;;;;;;;;;;;;
2023/12/08 06:36:50;;;;;;;1.5;1.4;;;;;;;;;;;;;
2023/12/08 06:39:17;;;;;;;2.8;1.4;;;;;;;;;;;;;
2023/12/08 06:41:42;;;;;;;2.8;1.5;;;;;;;;;;;;;
2023/12/08 06:44:07;;;;;;;2.4;1.8;;;;;;;;;;;;;
2023/12/08 06:46:32;;;;;;;3.7;2.9;;;;;;;;;;;;;
2023/12/08 06:49:03;;;;;;;3.6;2.4;;;;;;;;;;;;;
2023/12/08 06:51:27;;;;;;;3.5;2.4;;;;;;;;;;;;;
2023/12/08 06:53:53;;;;;;;4.1;2.7;;;;;;;;;;;;;
2023/12/08 06:56:19;;;;;;;5.5;2.7;;;;;;;;;;;;;
2023/12/08 06:58:45;;;;;;;6.8;3.1;;;;;;;;;;;;;
2023/12/08 07:01:10;;;;;;;8.1;4.4;;;;;;;;;;;;;
2023/12/08 07:03:35;;;;;;;7.4;3.5;;;;;;;;;;;;;
2023/12/08 07:06:01;;;;;;;9.3;6;;;;;;;;;;;;;
2023/12/08 07:08:27;;;;;;;10.4;6.2;;;;;;;;;;;;;
2023/12/08 07:10:52;;;;;;;10.6;6.3;;;;;;;;;;;;;
2023/12/08 07:13:17;;;;;;;10.4;6.2;;;;;;;;;;;;;
2023/12/08 07:15:43;;;;;;;10.9;6.2;;;;;;;;;;;;;
2023/12/08 07:18:08;;;;;;;4.9;3.1;;;;;;;;;;;;;
2023/12/08 07:20:34;;;;;;;4.8;2.9;;;;;;;;;;;;;
2023/12/08 07:23:02;;;;;;;4;2.2;;;;;;;;;;;;;
2023/12/08 07:25:27;;;;;;;4.9;3.2;;;;;;;;;;;;;
2023/12/08 07:27:53;;;;;;;6.5;4.4;;;;;;;;;;;;;
2023/12/08 07:30:17;;;;;;;8;4.3;;;;;;;;;;;;;
2023/12/08 07:32:46;;;;;;;6.4;4.4;;;;;;;;;;;;;
2023/12/08 07:35:09;;;;;;;8.8;5.1;;;;;;;;;;;;;
2023/12/08 07:37:35;;;;;;;8.2;5.2;;;;;;;;;;;;;
2023/12/08 07:40:00;;;;;;;8.1;4.9;;;;;;;;;;;;;
2023/12/08 07:42:26;;;;;;;8.5;5.1;;;;;;;;;;;;;
2023/12/08 07:44:52;;;;;;;9.4;5.3;;;;;;;;;;;;;
2023/12/08 07:47:19;;;;;;;8.1;5.1;;;;;;;;;;;;;
2023/12/08 07:49:44;;;;;;;11.4;6.2;;;;;;;;;;;;;
2023/12/08 07:52:10;;;;;;;12.6;7;;;;;;;;;;;;;
2023/12/08 07:54:36;;;;;;;13.4;8.1;;;;;;;;;;;;;
2023/12/08 07:57:01;;;;;;;13.1;7.7;;;;;;;;;;;;;
2023/12/08 07:59:26;;;;;;;13.2;7.7;;;;;;;;;;;;;
2023/12/08 08:01:54;;;;;;;16.3;9;;;;;;;;;;;;;
2023/12/08 08:04:19;;;;;;;14.3;8.8;;;;;;;;;;;;;
2023/12/08 08:06:45;;;;;;;15.5;8.8;;;;;;;;;;;;;
2023/12/08 08:09:11;;;;;;;12.2;7.1;;;;;;;;;;;;;
2023/12/08 08:11:35;;;;;;;9.4;6.8;;;;;;;;;;;;;
2023/12/08 08:14:00;;;;;;;9.8;6.5;;;;;;;;;;;;;
2023/12/08 08:16:28;;;;;;;8.7;5.9;;;;;;;;;;;;;
2023/12/08 08:18:53;;;;;;;12.3;8;;;;;;;;;;;;;
2023/12/08 08:21:20;;;;;;;12.8;8.4;;;;;;;;;;;;;
2023/12/08 08:23:44;;;;;;;13.6;8;;;;;;;;;;;;;
2023/12/08 08:26:10;;;;;;;12.4;8.4;;;;;;;;;;;;;
2023/12/08 08:28:35;;;;;;;15.7;9.9;;;;;;;;;;;;;
2023/12/08 08:31:02;;;;;;;12.9;7.7;;;;;;;;;;;;;
2023/12/08 08:33:27;;;;;;;10.2;7.3;;;;;;;;;;;;;
2023/12/08 08:35:55;;;;;;;7.8;5.5;;;;;;;;;;;;;
2023/12/08 08:38:20;;;;;;;7.7;5.2;;;;;;;;;;;;;
2023/12/08 08:40:47;;;;;;;7.6;5.3;;;;;;;;;;;;;
2023/12/08 08:43:13;;;;;;;9.3;5.4;;;;;;;;;;;;;
2023/12/08 08:45:38;;;;;;;9;5.2;;;;;;;;;;;;;
2023/12/08 08:48:03;;;;;;;8;5.3;;;;;;;;;;;;;
2023/12/08 08:50:29;;;;;;;12;7.4;;;;;;;;;;;;;
2023/12/08 08:52:55;;;;;;;9.5;5.2;;;;;;;;;;;;;
2023/12/08 08:55:20;;;;;;;7.3;4.4;;;;;;;;;;;;;
2023/12/08 08:57:47;;;;;;;9.9;5.2;;;;;;;;;;;;;
2023/12/08 09:00:18;;;;;;;9.9;4.7;;;;;;;;;;;;;
2023/12/08 09:02:45;;;;;;;12.6;5.4;;;;;;;;;;;;;
2023/12/08 09:05:09;;;;;;;7.9;4.4;;;;;;;;;;;;;
2023/12/08 09:07:35;;;;;;;11.7;6.4;;;;;;;;;;;;;
2023/12/08 09:10:00;;;;;;;14.8;7.4;;;;;;;;;;;;;
2023/12/08 09:12:28;;;;;;;6.2;4.2;;;;;;;;;;;;;
2023/12/08 09:14:52;;;;;;;6.3;3.5;;;;;;;;;;;;;
2023/12/08 09:17:18;;;;;;;5.4;3.5;;;;;;;;;;;;;
2023/12/08 09:19:43;;;;;;;5.3;3.6;;;;;;;;;;;;;
2023/12/08 09:22:10;;;;;;;5.7;4.3;;;;;;;;;;;;;
2023/12/08 09:24:35;;;;;;;6.8;4.9;;;;;;;;;;;;;
2023/12/08 09:27:03;;;;;;;10.6;5.6;;;;;;;;;;;;;
2023/12/08 09:29:25;;;;;;;8.3;4.9;;;;;;;;;;;;;
2023/12/08 09:31:52;;;;;;;10;4.9;;;;;;;;;;;;;
2023/12/08 09:34:17;;;;;;;11;5.3;;;;;;;;;;;;;
2023/12/08 09:36:43;;;;;;;9.4;5.6;;;;;;;;;;;;;
2023/12/08 09:39:09;;;;;;;7;4.6;;;;;;;;;;;;;
2023/12/08 09:41:35;;;;;;;8.2;4.7;;;;;;;;;;;;;
2023/12/08 09:44:00;;;;;;;9.2;6.2;;;;;;;;;;;;;
2023/12/08 09:46:28;;;;;;;8.3;6.3;;;;;;;;;;;;;
2023/12/08 09:48:54;;;;;;;9.4;6.5;;;;;;;;;;;;;
2023/12/08 09:51:20;;;;;;;11.2;7;;;;;;;;;;;;;
2023/12/08 09:53:47;;;;;;;9.1;6.3;;;;;;;;;;;;;
2023/12/08 09:56:13;;;;;;;8.3;5.5;;;;;;;;;;;;;
2023/12/08 09:58:38;;;;;;;9.1;5.7;;;;;;;;;;;;;
2023/12/08 10:01:04;;;;;;;11.2;6.9;;;;;;;;;;;;;
2023/12/08 10:03:29;;;;;;;11.6;7.1;;;;;;;;;;;;;
2023/12/08 10:05:54;;;;;;;10.8;6.9;;;;;;;;;;;;;
2023/12/08 10:08:21;;;;;;;12.5;7.4;;;;;;;;;;;;;
2023/12/08 10:10:46;;;;;;;12.6;7.3;;;;;;;;;;;;;
2023/12/08 10:13:14;;;;;;;11.7;6.6;;;;;;;;;;;;;
2023/12/08 10:15:39;;;;;;;12.8;7.5;;;;;;;;;;;;;
2023/12/08 10:18:07;;;;;;;13.7;8.3;;;;;;;;;;;;;
2023/12/08 10:20:35;;;;;;;14.3;8.7;;;;;;;;;;;;;
2023/12/08 10:23:01;;;;;;;13.6;8.6;;;;;;;;;;;;;
2023/12/08 10:25:27;;;;;;;15;8.9;;;;;;;;;;;;;
2023/12/08 10:27:53;;;;;;;11.9;7.8;;;;;;;;;;;;;
2023/12/08 10:30:20;;;;;;;9.4;6.3;;;;;;;;;;;;;
2023/12/08 10:32:46;;;;;;;7.7;5.4;;;;;;;;;;;;;
2023/12/08 10:35:16;;;;;;;7.7;5.3;;;;;;;;;;;;;
2023/12/08 10:37:46;;;;;;;7.3;5.4;;;;;;;;;;;;;
2023/12/08 10:40:12;;;;;;;7.9;5.1;;;;;;;;;;;;;
2023/12/08 10:42:38;;;;;;;13.8;6.8;;;;;;;;;;;;;
2023/12/08 10:45:03;;;;;;;7.6;4.2;;;;;;;;;;;;;
2023/12/08 10:47:30;;;;;;;7.5;4.1;;;;;;;;;;;;;
2023/12/08 10:49:55;;;;;;;7.5;4.5;;;;;;;;;;;;;
2023/12/08 10:52:21;;;;;;;8.4;4.8;;;;;;;;;;;;;
2023/12/08 10:54:46;;;;;;;7.7;5;;;;;;;;;;;;;
2023/12/08 10:57:13;;;;;;;6;4;;;;;;;;;;;;;
2023/12/08 10:59:38;;;;;;;11;5.9;;;;;;;;;;;;;
2023/12/08 11:02:05;;;;;;;9.7;5.7;;;;;;;;;;;;;
2023/12/08 11:04:31;;;;;;;7.3;5.2;;;;;;;;;;;;;
2023/12/08 11:06:56;;;;;;;9.7;5.6;;;;;;;;;;;;;
2023/12/08 11:09:23;;;;;;;9.9;6.2;;;;;;;;;;;;;
2023/12/08 11:11:48;;;;;;;9.4;5.8;;;;;;;;;;;;;
2023/12/08 11:14:13;;;;;;;10.4;7.1;;;;;;;;;;;;;
2023/12/08 11:16:38;;;;;;;11.4;8.1;;;;;;;;;;;;;
2023/12/08 11:19:03;;;;;;;9.4;7.6;;;;;;;;;;;;;
2023/12/08 11:21:33;;;;;;;10.3;6.9;;;;;;;;;;;;;
2023/12/08 11:24:01;;;;;;;12.1;7.1;;;;;;;;;;;;;
2023/12/08 11:26:26;;;;;;;9.8;5.9;;;;;;;;;;;;;
2023/12/08 11:28:55;;;;;;;6;4.5;;;;;;;;;;;;;
2023/12/08 11:31:20;;;;;;;6.4;4.2;;;;;;;;;;;;;
2023/12/08 11:33:47;;;;;;;5;4.3;;;;;;;;;;;;;
2023/12/08 11:36:14;;;;;;;7.6;4.4;;;;;;;;;;;;;
2023/12/08 11:38:42;;;;;;;5.1;3.7;;;;;;;;;;;;;
2023/12/08 11:41:10;;;;;;;5.9;3.8;;;;;;;;;;;;;
2023/12/08 11:43:35;;;;;;;7.9;5.3;;;;;;;;;;;;;
2023/12/08 11:46:04;;;;;;;9.9;6.5;;;;;;;;;;;;;
2023/12/08 11:48:32;;;;;;;13.4;9.5;;;;;;;;;;;;;
2023/12/08 11:50:57;;;;;;;21.5;11.9;;;;;;;;;;;;;
2023/12/08 11:53:23;;;;;;;25.5;11.9;;;;;;;;;;;;;
2023/12/08 11:55:48;;;;;;;18.4;9.7;;;;;;;;;;;;;
2023/12/08 11:58:17;;;;;;;14.6;8.1;;;;;;;;;;;;;
2023/12/08 12:00:38;;;;;;;15.1;8.9;;;;;;;;;;;;;
2023/12/08 12:03:06;;;;;;;10.6;6.5;;;;;;;;;;;;;
2023/12/08 12:05:31;;;;;;;16.1;8.8;;;;;;;;;;;;;
2023/12/08 12:07:57;;;;;;;25.4;11.7;;;;;;;;;;;;;
2023/12/08 12:10:22;;;;;;;20.5;10.1;;;;;;;;;;;;;
2023/12/08 12:12:51;;;;;;;11;6.5;;;;;;;;;;;;;
2023/12/08 12:15:15;;;;;;;7.8;5;;;;;;;;;;;;;
2023/12/08 12:17:43;;;;;;;13.5;7.2;;;;;;;;;;;;;
2023/12/08 12:20:09;;;;;;;14.6;10.4;;;;;;;;;;;;;
2023/12/08 12:22:35;;;;;;;11.3;8;;;;;;;;;;;;;
2023/12/08 12:25:00;;;;;;;10.2;7.6;;;;;;;;;;;;;
2023/12/08 12:27:25;;;;;;;9.4;6.3;;;;;;;;;;;;;
2023/12/08 12:29:51;;;;;;;11.9;8.6;;;;;;;;;;;;;
2023/12/08 12:32:17;;;;;;;13.1;8.6;;;;;;;;;;;;;
2023/12/08 12:34:42;;;;;;;24;12.9;;;;;;;;;;;;;
2023/12/08 12:37:11;;;;;;;68;31.3;;;;;;;;;;;;;
2023/12/08 12:39:35;;;;;;;55.1;26;;;;;;;;;;;;;
2023/12/08 12:42:02;;;;;;;57.7;27.7;;;;;;;;;;;;;
2023/12/08 12:44:27;;;;;;;41.9;20.5;;;;;;;;;;;;;
2023/12/08 12:46:52;;;;;;;50.5;25.9;;;;;;;;;;;;;
2023/12/08 12:49:17;;;;;;;26;13.2;;;;;;;;;;;;;
2023/12/08 12:51:43;;;;;;;23.6;12;;;;;;;;;;;;;
2023/12/08 12:54:12;;;;;;;19.3;10.5;;;;;;;;;;;;;
2023/12/08 12:56:37;;;;;;;16.7;8.8;;;;;;;;;;;;;
2023/12/08 12:59:02;;;;;;;17.1;9.6;;;;;;;;;;;;;
2023/12/08 13:01:28;;;;;;;15.3;8.6;;;;;;;;;;;;;
2023/12/08 13:03:54;;;;;;;15.1;8.9;;;;;;;;;;;;;
2023/12/08 13:06:20;;;;;;;9.7;6.1;;;;;;;;;;;;;
2023/12/08 13:08:49;;;;;;;11;6.5;;;;;;;;;;;;;
2023/12/08 13:11:14;;;;;;;12.2;7.1;;;;;;;;;;;;;
2023/12/08 13:13:39;;;;;;;10.3;6.4;;;;;;;;;;;;;
2023/12/08 13:16:05;;;;;;;10.4;6.5;;;;;;;;;;;;;
2023/12/08 13:18:35;;;;;;;10.3;6.3;;;;;;;;;;;;;
2023/12/08 13:20:55;;;;;;;10;6.1;;;;;;;;;;;;;
2023/12/08 13:23:22;;;;;;;12.3;6.7;;;;;;;;;;;;;
2023/12/08 13:25:48;;;;;;;13.1;7.3;;;;;;;;;;;;;
2023/12/08 13:28:14;;;;;;;12.4;7.8;;;;;;;;;;;;;
2023/12/08 13:30:40;;;;;;;15.7;8.6;;;;;;;;;;;;;
2023/12/08 13:33:06;;;;;;;15.5;8.7;;;;;;;;;;;;;
2023/12/08 13:35:31;;;;;;;14.6;8.5;;;;;;;;;;;;;
2023/12/08 13:37:57;;;;;;;12.9;8.1;;;;;;;;;;;;;
2023/12/08 13:40:25;;;;;;;13;8.1;;;;;;;;;;;;;
2023/12/08 13:42:47;;;;;;;13.7;9.2;;;;;;;;;;;;;
2023/12/08 13:45:12;;;;;;;16.6;10.9;;;;;;;;;;;;;
2023/12/08 13:47:37;;;;;;;17.7;11.8;;;;;;;;;;;;;
2023/12/08 13:50:04;;;;;;;19.1;12.2;;;;;;;;;;;;;
2023/12/08 13:52:30;;;;;;;21.1;12.7;;;;;;;;;;;;;
2023/12/08 13:54:54;;;;;;;21.7;12.6;;;;;;;;;;;;;
2023/12/08 13:57:19;;;;;;;22.4;12.9;;;;;;;;;;;;;
2023/12/08 13:59:46;;;;;;;18.2;11.5;;;;;;;;;;;;;
2023/12/08 14:02:12;;;;;;;16.4;10;;;;;;;;;;;;;
2023/12/08 14:04:39;;;;;;;17.8;10;;;;;;;;;;;;;
2023/12/08 14:07:03;;;;;;;16.3;9.6;;;;;;;;;;;;;
2023/12/08 14:09:28;;;;;;;13.5;8.5;;;;;;;;;;;;;
2023/12/08 14:11:53;;;;;;;15.1;8.6;;;;;;;;;;;;;
2023/12/08 14:14:21;;;;;;;13.4;8.6;;;;;;;;;;;;;
2023/12/08 14:16:47;;;;;;;11.1;8.3;;;;;;;;;;;;;
2023/12/08 14:19:13;;;;;;;13;8.7;;;;;;;;;;;;;
2023/12/08 14:21:39;;;;;;;19.5;11.4;;;;;;;;;;;;;
2023/12/08 14:24:04;;;;;;;22.2;12.1;;;;;;;;;;;;;
2023/12/08 14:26:29;;;;;;;19.8;11.7;;;;;;;;;;;;;
2023/12/08 14:28:54;;;;;;;24.2;13.1;;;;;;;;;;;;;
2023/12/08 14:31:20;;;;;;;21.5;12.1;;;;;;;;;;;;;
2023/12/08 14:33:46;;;;;;;20.5;12.6;;;;;;;;;;;;;
2023/12/08 14:36:11;;;;;;;19.5;11.3;;;;;;;;;;;;;
2023/12/08 14:38:38;;;;;;;22.9;13.2;;;;;;;;;;;;;
2023/12/08 14:41:03;;;;;;;23.1;13.8;;;;;;;;;;;;;
2023/12/08 14:43:29;;;;;;;24.1;13.7;;;;;;;;;;;;;
2023/12/08 14:45:55;;;;;;;23.3;13.7;;;;;;;;;;;;;
2023/12/08 14:48:22;;;;;;;19.5;11.7;;;;;;;;;;;;;
2023/12/08 14:50:47;;;;;;;21.1;10.6;;;;;;;;;;;;;
2023/12/08 14:53:14;;;;;;;18.3;10.9;;;;;;;;;;;;;
2023/12/08 14:55:39;;;;;;;15.8;8.9;;;;;;;;;;;;;
2023/12/08 14:58:05;;;;;;;14.4;8.3;;;;;;;;;;;;;
2023/12/08 15:00:31;;;;;;;16.3;8.9;;;;;;;;;;;;;
2023/12/08 15:02:56;;;;;;;14.3;8;;;;;;;;;;;;;
2023/12/08 15:05:23;;;;;;;15.8;8.7;;;;;;;;;;;;;
2023/12/08 15:07:49;;;;;;;24.2;12.2;;;;;;;;;;;;;
2023/12/08 15:10:16;;;;;;;34;15.8;;;;;;;;;;;;;
2023/12/08 15:12:41;;;;;;;42.6;18;;;;;;;;;;;;;
2023/12/08 15:15:08;;;;;;;26.9;13.1;;;;;;;;;;;;;
2023/12/08 15:17:35;;;;;;;17;9.9;;;;;;;;;;;;;
2023/12/08 15:20:01;;;;;;;17.3;8.7;;;;;;;;;;;;;
2023/12/08 15:22:23;;;;;;;16.1;8.4;;;;;;;;;;;;;
2023/12/08 15:24:47;;;;;;;12.9;8.4;;;;;;;;;;;;;
2023/12/08 15:27:13;;;;;;;15.5;9.5;;;;;;;;;;;;;
2023/12/08 15:29:40;;;;;;;20.5;12.2;;;;;;;;;;;;;
2023/12/08 15:32:05;;;;;;;23.9;13.6;;;;;;;;;;;;;
2023/12/08 15:34:32;;;;;;;24.1;15;;;;;;;;;;;;;
2023/12/08 15:36:57;;;;;;;26.6;15.6;;;;;;;;;;;;;
2023/12/08 15:39:23;;;;;;;33.2;19;;;;;;;;;;;;;
2023/12/08 15:41:48;;;;;;;40;22.1;;;;;;;;;;;;;
2023/12/08 15:44:13;;;;;;;47.4;24.3;;;;;;;;;;;;;
2023/12/08 15:46:38;;;;;;;38.2;20.9;;;;;;;;;;;;;
2023/12/08 15:49:05;;;;;;;22.5;12.9;;;;;;;;;;;;;
2023/12/08 15:51:30;;;;;;;18.5;11.4;;;;;;;;;;;;;
2023/12/08 15:53:56;;;;;;;23.4;12.8;;;;;;;;;;;;;
2023/12/08 15:56:21;;;;;;;26.7;14.3;;;;;;;;;;;;;
2023/12/08 15:58:48;;;;;;;28;17;;;;;;;;;;;;;
2023/12/08 16:01:13;;;;;;;26.3;16.9;;;;;;;;;;;;;
2023/12/08 16:03:40;;;;;;;24.4;17.5;;;;;;;;;;;;;
2023/12/08 16:06:05;;;;;;;25;16.9;;;;;;;;;;;;;
2023/12/08 16:08:32;;;;;;;26.8;16;;;;;;;;;;;;;
2023/12/08 16:10:58;;;;;;;22.7;14.8;;;;;;;;;;;;;
2023/12/08 16:13:23;;;;;;;21;12.9;;;;;;;;;;;;;
2023/12/08 16:15:49;;;;;;;18.6;11.8;;;;;;;;;;;;;
2023/12/08 16:18:15;;;;;;;19.8;13.1;;;;;;;;;;;;;
2023/12/08 16:20:40;;;;;;;28.7;17.6;;;;;;;;;;;;;
2023/12/08 16:23:06;;;;;;;34.1;19.7;;;;;;;;;;;;;
2023/12/08 16:25:31;;;;;;;34.9;19.9;;;;;;;;;;;;;
2023/12/08 16:27:56;;;;;;;37.8;20.7;;;;;;;;;;;;;
2023/12/08 16:30:21;;;;;;;46.5;24.6;;;;;;;;;;;;;
2023/12/08 16:32:46;;;;;;;51.7;25.8;;;;;;;;;;;;;
2023/12/08 16:35:14;;;;;;;43.1;23.9;;;;;;;;;;;;;
2023/12/08 16:37:39;;;;;;;45.9;24.5;;;;;;;;;;;;;
2023/12/08 16:40:04;;;;;;;42.3;24.2;;;;;;;;;;;;;
2023/12/08 16:42:29;;;;;;;48.6;25;;;;;;;;;;;;;
2023/12/08 16:44:55;;;;;;;43.7;24.3;;;;;;;;;;;;;
2023/12/08 16:47:20;;;;;;;46.9;26;;;;;;;;;;;;;
2023/12/08 16:49:47;;;;;;;44.9;23.9;;;;;;;;;;;;;
2023/12/08 16:52:13;;;;;;;34.6;19.6;;;;;;;;;;;;;
2023/12/08 16:54:38;;;;;;;33.5;17.4;;;;;;;;;;;;;
2023/12/08 16:57:03;;;;;;;27.9;15.9;;;;;;;;;;;;;
2023/12/08 16:59:32;;;;;;;24.1;14.2;;;;;;;;;;;;;
2023/12/08 17:01:55;;;;;;;21.1;13.6;;;;;;;;;;;;;
2023/12/08 17:04:20;;;;;;;18.9;12.6;;;;;;;;;;;;;
2023/12/08 17:06:48;;;;;;;23.1;14.3;;;;;;;;;;;;;
2023/12/08 17:09:13;;;;;;;32.4;20.3;;;;;;;;;;;;;
2023/12/08 17:11:38;;;;;;;35.2;21;;;;;;;;;;;;;
2023/12/08 17:14:04;;;;;;;28.6;16.2;;;;;;;;;;;;;
2023/12/08 17:16:29;;;;;;;24.5;15.4;;;;;;;;;;;;;
2023/12/08 17:18:57;;;;;;;29;17.8;;;;;;;;;;;;;
2023/12/08 17:21:22;;;;;;;31.2;17.8;;;;;;;;;;;;;
2023/12/08 17:23:48;;;;;;;29.1;16.3;;;;;;;;;;;;;
2023/12/08 17:26:12;;;;;;;18.4;11;;;;;;;;;;;;;
2023/12/08 17:28:37;;;;;;;20.6;10.7;;;;;;;;;;;;;
2023/12/08 17:31:08;;;;;;;20.4;12;;;;;;;;;;;;;
2023/12/08 17:33:33;;;;;;;25.4;15.6;;;;;;;;;;;;;
2023/12/08 17:35:58;;;;;;;25.4;15.6;;;;;;;;;;;;;
2023/12/08 17:38:26;;;;;;;27.1;16.7;;;;;;;;;;;;;
2023/12/08 17:40:51;;;;;;;27.1;16.2;;;;;;;;;;;;;
2023/12/08 17:43:20;;;;;;;25.8;15.8;;;;;;;;;;;;;
2023/12/08 17:45:46;;;;;;;24.6;15.7;;;;;;;;;;;;;
2023/12/08 17:48:11;;;;;;;22.8;14.3;;;;;;;;;;;;;
2023/12/08 17:50:37;;;;;;;21.2;14.4;;;;;;;;;;;;;
2023/12/08 17:53:02;;;;;;;22.6;15.3;;;;;;;;;;;;;
2023/12/08 17:55:30;;;;;;;14.6;10.3;;;;;;;;;;;;;
2023/12/08 17:57:54;;;;;;;11.8;8.2;;;;;;;;;;;;;
2023/12/08 18:00:23;;;;;;;9.8;6.8;;;;;;;;;;;;;
2023/12/08 18:02:55;;;;;;;10.4;7.4;;;;;;;;;;;;;
2023/12/08 18:05:20;;;;;;;10.8;7.3;;;;;;;;;;;;;
2023/12/08 18:07:49;;;;;;;12.1;7.7;;;;;;;;;;;;;
2023/12/08 18:10:14;;;;;;;7.5;5.5;;;;;;;;;;;;;
2023/12/08 18:12:40;;;;;;;16.7;8.6;;;;;;;;;;;;;
2023/12/08 18:15:05;;;;;;;18.7;9.9;;;;;;;;;;;;;
2023/12/08 18:17:30;;;;;;;28.6;15.3;;;;;;;;;;;;;
2023/12/08 18:19:58;;;;;;;34.7;18.1;;;;;;;;;;;;;
2023/12/08 18:22:21;;;;;;;31.5;16.7;;;;;;;;;;;;;
2023/12/08 18:24:46;;;;;;;25;14.7;;;;;;;;;;;;;
2023/12/08 18:27:11;;;;;;;24.6;13.8;;;;;;;;;;;;;
2023/12/08 18:29:42;;;;;;;23.8;15.1;;;;;;;;;;;;;
2023/12/08 18:32:07;;;;;;;24;14.5;;;;;;;;;;;;;
2023/12/08 18:34:35;;;;;;;23.1;14.2;;;;;;;;;;;;;
2023/12/08 18:37:00;;;;;;;24.3;14.7;;;;;;;;;;;;;
2023/12/08 18:39:25;;;;;;;17.9;12.8;;;;;;;;;;;;;
2023/12/08 18:41:50;;;;;;;17.7;11.8;;;;;;;;;;;;;
2023/12/08 18:44:17;;;;;;;23.3;12.4;;;;;;;;;;;;;
2023/12/08 18:46:42;;;;;;;29.2;15;;;;;;;;;;;;;
2023/12/08 18:49:12;;;;;;;26.5;14.8;;;;;;;;;;;;;
2023/12/08 18:51:42;;;;;;;24.4;13.5;;;;;;;;;;;;;
2023/12/08 18:54:04;;;;;;;21.7;12.2;;;;;;;;;;;;;
2023/12/08 18:56:30;;;;;;;19;12.2;;;;;;;;;;;;;
2023/12/08 18:58:55;;;;;;;18.6;12.6;;;;;;;;;;;;;
2023/12/08 19:01:23;;;;;;;20;12.1;;;;;;;;;;;;;
2023/12/08 19:03:48;;;;;;;22.8;14.7;;;;;;;;;;;;;
2023/12/08 19:06:16;;;;;;;28;17.1;;;;;;;;;;;;;
2023/12/08 19:08:41;;;;;;;62.6;31.7;;;;;;;;;;;;;
2023/12/08 19:11:06;;;;;;;42.3;24.1;;;;;;;;;;;;;
2023/12/08 19:13:31;;;;;;;28.3;17.6;;;;;;;;;;;;;
2023/12/08 19:15:58;;;;;;;24.5;16;;;;;;;;;;;;;
2023/12/08 19:18:23;;;;;;;27.4;15.7;;;;;;;;;;;;;
2023/12/08 19:20:49;;;;;;;39.9;21.6;;;;;;;;;;;;;
2023/12/08 19:23:14;;;;;;;67.5;34.2;;;;;;;;;;;;;
2023/12/08 19:25:46;;;;;;;77.1;39.5;;;;;;;;;;;;;
2023/12/08 19:28:11;;;;;;;90.3;45.8;;;;;;;;;;;;;
2023/12/08 19:30:36;;;;;;;76.6;42.2;;;;;;;;;;;;;
2023/12/08 19:33:03;;;;;;;49;28.7;;;;;;;;;;;;;
2023/12/08 19:35:27;;;;;;;33.9;20.1;;;;;;;;;;;;;
2023/12/08 19:37:56;;;;;;;23.3;12.7;;;;;;;;;;;;;
2023/12/08 19:40:18;;;;;;;16.9;10.6;;;;;;;;;;;;;
2023/12/08 19:42:45;;;;;;;12.6;9.8;;;;;;;;;;;;;
2023/12/08 19:45:10;;;;;;;15.9;10.4;;;;;;;;;;;;;
2023/12/08 19:47:37;;;;;;;15.8;10;;;;;;;;;;;;;
2023/12/08 19:50:03;;;;;;;11.1;7.9;;;;;;;;;;;;;
2023/12/08 19:52:29;;;;;;;9;7.4;;;;;;;;;;;;;